Terminal Aerodrome Forecast
Issued by NWS

Current Version | Previous Version | Text Only | Print | Product List | Glossary On
Versions: 1 2 3 4 5 6 7 8 9 10 11 12 13 14 15
000
FTUS44 KTSA 261321 AAB
TAFFYV
TAF AMD
KFYV 261321Z 2613/2712 00000KT P6SM BKN150
     FM261600 VRB06KT P6SM VCTS SCT050CB BKN120
     FM270100 VRB02KT P6SM BKN100 PROB30 2701/2704 4SM TSRA
      BKN050CB=

USA.gov is the U.S. government's official web portal to all federal, state and local government web resources and services.